sensor_id;sensor_type;location;lat;lon;timestamp;pressure;altitude;pressure_sealevel;temperature
12854;BMP180;6495;51.808;7.478;2022-07-15T00:00:28;101678.00;;;18.40
12854;BMP180;6495;51.808;7.478;2022-07-15T00:02:56;101673.00;;;18.40
12854;BMP180;6495;51.808;7.478;2022-07-15T00:05:27;101681.00;;;18.40
12854;BMP180;6495;51.808;7.478;2022-07-15T00:07:55;101679.00;;;18.40
12854;BMP180;6495;51.808;7.478;2022-07-15T00:10:25;101682.00;;;18.40
12854;BMP180;6495;51.808;7.478;2022-07-15T00:12:56;101682.00;;;18.30
12854;BMP180;6495;51.808;7.478;2022-07-15T00:15:27;101679.00;;;18.30
12854;BMP180;6495;51.808;7.478;2022-07-15T00:17:56;101678.00;;;18.30
12854;BMP180;6495;51.808;7.478;2022-07-15T00:20:31;101682.00;;;18.20
12854;BMP180;6495;51.808;7.478;2022-07-15T00:23:02;101677.00;;;18.20
12854;BMP180;6495;51.808;7.478;2022-07-15T00:25:30;101679.00;;;18.20
12854;BMP180;6495;51.808;7.478;2022-07-15T00:28:02;101677.00;;;18.20
12854;BMP180;6495;51.808;7.478;2022-07-15T00:30:33;101689.00;;;18.20
12854;BMP180;6495;51.808;7.478;2022-07-15T00:33:03;101685.00;;;18.10
12854;BMP180;6495;51.808;7.478;2022-07-15T00:35:36;101685.00;;;18.10
12854;BMP180;6495;51.808;7.478;2022-07-15T00:38:07;101687.00;;;18.10
12854;BMP180;6495;51.808;7.478;2022-07-15T00:40:42;101683.00;;;18.00
12854;BMP180;6495;51.808;7.478;2022-07-15T00:43:11;101695.00;;;18.00
12854;BMP180;6495;51.808;7.478;2022-07-15T00:45:39;101696.00;;;18.00
12854;BMP180;6495;51.808;7.478;2022-07-15T00:48:07;101695.00;;;18.00
12854;BMP180;6495;51.808;7.478;2022-07-15T00:50:41;101705.00;;;18.00
12854;BMP180;6495;51.808;7.478;2022-07-15T00:53:16;101696.00;;;18.00
12854;BMP180;6495;51.808;7.478;2022-07-15T00:55:46;101694.00;;;17.90
12854;BMP180;6495;51.808;7.478;2022-07-15T00:58:18;101705.00;;;17.90
12854;BMP180;6495;51.808;7.478;2022-07-15T01:00:48;101699.00;;;17.90
12854;BMP180;6495;51.808;7.478;2022-07-15T01:03:17;101701.00;;;17.90
12854;BMP180;6495;51.808;7.478;2022-07-15T01:05:48;101692.00;;;17.90
12854;BMP180;6495;51.808;7.478;2022-07-15T01:08:17;101689.00;;;17.90
12854;BMP180;6495;51.808;7.478;2022-07-15T01:10:47;101687.00;;;17.90
12854;BMP180;6495;51.808;7.478;2022-07-15T01:13:17;101692.00;;;17.80
12854;BMP180;6495;51.808;7.478;2022-07-15T01:15:46;101691.00;;;17.80
12854;BMP180;6495;51.808;7.478;2022-07-15T01:18:16;101698.00;;;17.80
12854;BMP180;6495;51.808;7.478;2022-07-15T01:20:46;101689.00;;;17.70
12854;BMP180;6495;51.808;7.478;2022-07-15T01:23:15;101694.00;;;17.70
12854;BMP180;6495;51.808;7.478;2022-07-15T01:25:43;101695.00;;;17.60
12854;BMP180;6495;51.808;7.478;2022-07-15T01:28:12;101690.00;;;17.60
12854;BMP180;6495;51.808;7.478;2022-07-15T01:30:40;101683.00;;;17.50
12854;BMP180;6495;51.808;7.478;2022-07-15T01:33:09;101691.00;;;17.50
12854;BMP180;6495;51.808;7.478;2022-07-15T01:35:37;101687.00;;;17.50
12854;BMP180;6495;51.808;7.478;2022-07-15T01:38:06;101692.00;;;17.40
12854;BMP180;6495;51.808;7.478;2022-07-15T01:40:34;101699.00;;;17.40
12854;BMP180;6495;51.808;7.478;2022-07-15T01:43:02;101698.00;;;17.40
12854;BMP180;6495;51.808;7.478;2022-07-15T01:45:30;101698.00;;;17.40
12854;BMP180;6495;51.808;7.478;2022-07-15T01:47:59;101697.00;;;17.30
12854;BMP180;6495;51.808;7.478;2022-07-15T01:50:27;101708.00;;;17.30
12854;BMP180;6495;51.808;7.478;2022-07-15T01:52:55;101704.00;;;17.20
12854;BMP180;6495;51.808;7.478;2022-07-15T01:55:24;101707.00;;;17.20
12854;BMP180;6495;51.808;7.478;2022-07-15T01:57:52;101699.00;;;17.20
12854;BMP180;6495;51.808;7.478;2022-07-15T02:00:20;101712.00;;;17.10
12854;BMP180;6495;51.808;7.478;2022-07-15T02:02:49;101709.00;;;17.20
12854;BMP180;6495;51.808;7.478;2022-07-15T02:05:17;101708.00;;;17.10
12854;BMP180;6495;51.808;7.478;2022-07-15T02:07:45;101704.00;;;17.10
12854;BMP180;6495;51.808;7.478;2022-07-15T02:10:13;101708.00;;;17.10
12854;BMP180;6495;51.808;7.478;2022-07-15T02:12:43;101703.00;;;17.00
12854;BMP180;6495;51.808;7.478;2022-07-15T02:15:11;101717.00;;;17.00
12854;BMP180;6495;51.808;7.478;2022-07-15T02:17:39;101708.00;;;17.00
12854;BMP180;6495;51.808;7.478;2022-07-15T02:20:09;101707.00;;;16.90
12854;BMP180;6495;51.808;7.478;2022-07-15T02:22:38;101700.00;;;16.90
12854;BMP180;6495;51.808;7.478;2022-07-15T02:25:07;101713.00;;;16.90
12854;BMP180;6495;51.808;7.478;2022-07-15T02:27:35;101710.00;;;16.90
12854;BMP180;6495;51.808;7.478;2022-07-15T02:30:06;101707.00;;;16.90
12854;BMP180;6495;51.808;7.478;2022-07-15T02:32:34;101704.00;;;16.90
12854;BMP180;6495;51.808;7.478;2022-07-15T02:35:03;101713.00;;;16.80
12854;BMP180;6495;51.808;7.478;2022-07-15T02:37:31;101708.00;;;16.80
12854;BMP180;6495;51.808;7.478;2022-07-15T02:39:59;101710.00;;;16.80
12854;BMP180;6495;51.808;7.478;2022-07-15T02:42:27;101703.00;;;16.70
12854;BMP180;6495;51.808;7.478;2022-07-15T02:44:55;101714.00;;;16.70
12854;BMP180;6495;51.808;7.478;2022-07-15T02:47:25;101705.00;;;16.70
12854;BMP180;6495;51.808;7.478;2022-07-15T02:49:53;101715.00;;;16.70
12854;BMP180;6495;51.808;7.478;2022-07-15T02:52:21;101714.00;;;16.60
12854;BMP180;6495;51.808;7.478;2022-07-15T02:54:49;101708.00;;;16.60
12854;BMP180;6495;51.808;7.478;2022-07-15T02:57:17;101722.00;;;16.60
12854;BMP180;6495;51.808;7.478;2022-07-15T02:59:46;101721.00;;;16.50
12854;BMP180;6495;51.808;7.478;2022-07-15T03:02:14;101718.00;;;16.50
12854;BMP180;6495;51.808;7.478;2022-07-15T03:04:44;101725.00;;;16.50
12854;BMP180;6495;51.808;7.478;2022-07-15T03:07:12;101726.00;;;16.40
12854;BMP180;6495;51.808;7.478;2022-07-15T03:09:40;101716.00;;;16.40
12854;BMP180;6495;51.808;7.478;2022-07-15T03:12:08;101729.00;;;16.40
12854;BMP180;6495;51.808;7.478;2022-07-15T03:14:37;101721.00;;;16.40
12854;BMP180;6495;51.808;7.478;2022-07-15T03:17:05;101725.00;;;16.30
12854;BMP180;6495;51.808;7.478;2022-07-15T03:19:33;101724.00;;;16.30
12854;BMP180;6495;51.808;7.478;2022-07-15T03:22:02;101721.00;;;16.30
12854;BMP180;6495;51.808;7.478;2022-07-15T03:24:31;101727.00;;;16.20
12854;BMP180;6495;51.808;7.478;2022-07-15T03:26:59;101722.00;;;16.20
12854;BMP180;6495;51.808;7.478;2022-07-15T03:29:27;101728.00;;;16.10
12854;BMP180;6495;51.808;7.478;2022-07-15T03:31:56;101730.00;;;16.10
12854;BMP180;6495;51.808;7.478;2022-07-15T03:34:24;101736.00;;;16.10
12854;BMP180;6495;51.808;7.478;2022-07-15T03:36:53;101745.00;;;16.00
12854;BMP180;6495;51.808;7.478;2022-07-15T03:39:23;101745.00;;;16.00
12854;BMP180;6495;51.808;7.478;2022-07-15T03:41:51;101753.00;;;16.00
12854;BMP180;6495;51.808;7.478;2022-07-15T03:44:19;101755.00;;;15.90
12854;BMP180;6495;51.808;7.478;2022-07-15T03:46:47;101748.00;;;15.90
12854;BMP180;6495;51.808;7.478;2022-07-15T03:49:16;101753.00;;;15.90
12854;BMP180;6495;51.808;7.478;2022-07-15T03:51:44;101755.00;;;15.90
12854;BMP180;6495;51.808;7.478;2022-07-15T03:54:13;101758.00;;;15.80
12854;BMP180;6495;51.808;7.478;2022-07-15T03:56:42;101760.00;;;15.80
12854;BMP180;6495;51.808;7.478;2022-07-15T03:59:14;101761.00;;;15.80
12854;BMP180;6495;51.808;7.478;2022-07-15T04:01:42;101764.00;;;15.80
12854;BMP180;6495;51.808;7.478;2022-07-15T04:04:11;101756.00;;;15.80
12854;BMP180;6495;51.808;7.478;2022-07-15T04:06:39;101760.00;;;15.80
12854;BMP180;6495;51.808;7.478;2022-07-15T04:09:07;101757.00;;;15.80
12854;BMP180;6495;51.808;7.478;2022-07-15T04:11:37;101762.00;;;15.70
12854;BMP180;6495;51.808;7.478;2022-07-15T04:14:12;101765.00;;;15.70
12854;BMP180;6495;51.808;7.478;2022-07-15T04:16:41;101768.00;;;15.60
12854;BMP180;6495;51.808;7.478;2022-07-15T04:19:09;101769.00;;;15.60
12854;BMP180;6495;51.808;7.478;2022-07-15T04:21:37;101778.00;;;15.60
12854;BMP180;6495;51.808;7.478;2022-07-15T04:24:05;101781.00;;;15.50
12854;BMP180;6495;51.808;7.478;2022-07-15T04:26:33;101779.00;;;15.50
12854;BMP180;6495;51.808;7.478;2022-07-15T04:29:02;101782.00;;;15.50
12854;BMP180;6495;51.808;7.478;2022-07-15T04:31:31;101785.00;;;15.50
12854;BMP180;6495;51.808;7.478;2022-07-15T04:33:59;101788.00;;;15.50
12854;BMP180;6495;51.808;7.478;2022-07-15T04:36:27;101787.00;;;15.50
12854;BMP180;6495;51.808;7.478;2022-07-15T04:38:55;101791.00;;;15.50
12854;BMP180;6495;51.808;7.478;2022-07-15T04:41:23;101789.00;;;15.50
12854;BMP180;6495;51.808;7.478;2022-07-15T04:43:51;101796.00;;;15.50
12854;BMP180;6495;51.808;7.478;2022-07-15T04:46:19;101800.00;;;15.50
12854;BMP180;6495;51.808;7.478;2022-07-15T04:48:49;101803.00;;;15.50
12854;BMP180;6495;51.808;7.478;2022-07-15T04:51:35;101795.00;;;15.50
12854;BMP180;6495;51.808;7.478;2022-07-15T04:54:03;101803.00;;;15.50
12854;BMP180;6495;51.808;7.478;2022-07-15T04:56:34;101802.00;;;15.50
12854;BMP180;6495;51.808;7.478;2022-07-15T04:59:02;101807.00;;;15.50
12854;BMP180;6495;51.808;7.478;2022-07-15T05:01:31;101809.00;;;15.50
12854;BMP180;6495;51.808;7.478;2022-07-15T05:04:00;101809.00;;;15.50
12854;BMP180;6495;51.808;7.478;2022-07-15T05:06:28;101809.00;;;15.50
12854;BMP180;6495;51.808;7.478;2022-07-15T05:08:56;101809.00;;;15.60
12854;BMP180;6495;51.808;7.478;2022-07-15T05:11:24;101799.00;;;15.60
12854;BMP180;6495;51.808;7.478;2022-07-15T05:13:52;101810.00;;;15.60
12854;BMP180;6495;51.808;7.478;2022-07-15T05:16:21;101809.00;;;15.60
12854;BMP180;6495;51.808;7.478;2022-07-15T05:18:49;101808.00;;;15.60
12854;BMP180;6495;51.808;7.478;2022-07-15T05:21:19;101802.00;;;15.60
12854;BMP180;6495;51.808;7.478;2022-07-15T05:23:52;101801.00;;;15.70
12854;BMP180;6495;51.808;7.478;2022-07-15T05:26:40;101808.00;;;15.80
12854;BMP180;6495;51.808;7.478;2022-07-15T05:29:11;101798.00;;;15.80
12854;BMP180;6495;51.808;7.478;2022-07-15T05:31:39;101795.00;;;15.80
12854;BMP180;6495;51.808;7.478;2022-07-15T05:34:07;101799.00;;;15.70
12854;BMP180;6495;51.808;7.478;2022-07-15T05:36:37;101799.00;;;15.80
12854;BMP180;6495;51.808;7.478;2022-07-15T05:39:05;101804.00;;;15.80
12854;BMP180;6495;51.808;7.478;2022-07-15T05:41:33;101814.00;;;15.90
12854;BMP180;6495;51.808;7.478;2022-07-15T05:44:01;101811.00;;;16.00
12854;BMP180;6495;51.808;7.478;2022-07-15T05:46:29;101811.00;;;16.10
12854;BMP180;6495;51.808;7.478;2022-07-15T05:48:58;101815.00;;;16.20
12854;BMP180;6495;51.808;7.478;2022-07-15T05:51:26;101815.00;;;16.30
12854;BMP180;6495;51.808;7.478;2022-07-15T05:53:56;101807.00;;;16.40
12854;BMP180;6495;51.808;7.478;2022-07-15T05:56:24;101814.00;;;16.40
12854;BMP180;6495;51.808;7.478;2022-07-15T05:58:52;101818.00;;;16.40
12854;BMP180;6495;51.808;7.478;2022-07-15T06:01:20;101812.00;;;16.40
12854;BMP180;6495;51.808;7.478;2022-07-15T06:03:50;101819.00;;;16.50
12854;BMP180;6495;51.808;7.478;2022-07-15T06:06:18;101821.00;;;16.50
12854;BMP180;6495;51.808;7.478;2022-07-15T06:08:46;101822.00;;;16.50
12854;BMP180;6495;51.808;7.478;2022-07-15T06:11:16;101825.00;;;16.50
12854;BMP180;6495;51.808;7.478;2022-07-15T06:13:44;101828.00;;;16.60
12854;BMP180;6495;51.808;7.478;2022-07-15T06:16:12;101821.00;;;16.60
12854;BMP180;6495;51.808;7.478;2022-07-15T06:18:41;101824.00;;;16.60
12854;BMP180;6495;51.808;7.478;2022-07-15T06:21:09;101825.00;;;16.70
12854;BMP180;6495;51.808;7.478;2022-07-15T06:23:38;101824.00;;;16.80
12854;BMP180;6495;51.808;7.478;2022-07-15T06:26:06;101828.00;;;16.90
12854;BMP180;6495;51.808;7.478;2022-07-15T06:28:35;101826.00;;;16.90
12854;BMP180;6495;51.808;7.478;2022-07-15T06:31:04;101825.00;;;16.90
12854;BMP180;6495;51.808;7.478;2022-07-15T06:33:32;101817.00;;;17.00
12854;BMP180;6495;51.808;7.478;2022-07-15T06:36:00;101822.00;;;17.10
12854;BMP180;6495;51.808;7.478;2022-07-15T06:38:30;101825.00;;;17.10
12854;BMP180;6495;51.808;7.478;2022-07-15T06:40:59;101823.00;;;17.20
12854;BMP180;6495;51.808;7.478;2022-07-15T06:43:27;101823.00;;;17.30
12854;BMP180;6495;51.808;7.478;2022-07-15T06:45:56;101827.00;;;17.40
12854;BMP180;6495;51.808;7.478;2022-07-15T06:48:25;101817.00;;;17.50
12854;BMP180;6495;51.808;7.478;2022-07-15T06:50:53;101823.00;;;17.60
12854;BMP180;6495;51.808;7.478;2022-07-15T06:53:21;101823.00;;;17.70
12854;BMP180;6495;51.808;7.478;2022-07-15T06:55:49;101824.00;;;17.70
12854;BMP180;6495;51.808;7.478;2022-07-15T06:58:17;101821.00;;;17.90
12854;BMP180;6495;51.808;7.478;2022-07-15T07:00:45;101823.00;;;18.00
12854;BMP180;6495;51.808;7.478;2022-07-15T07:03:15;101818.00;;;18.10
12854;BMP180;6495;51.808;7.478;2022-07-15T07:06:04;101814.00;;;18.30
12854;BMP180;6495;51.808;7.478;2022-07-15T07:08:33;101818.00;;;18.40
12854;BMP180;6495;51.808;7.478;2022-07-15T07:11:01;101823.00;;;18.50
12854;BMP180;6495;51.808;7.478;2022-07-15T07:13:29;101829.00;;;18.60
12854;BMP180;6495;51.808;7.478;2022-07-15T07:15:57;101832.00;;;18.60
12854;BMP180;6495;51.808;7.478;2022-07-15T07:18:27;101829.00;;;18.70
12854;BMP180;6495;51.808;7.478;2022-07-15T07:20:56;101832.00;;;18.60
12854;BMP180;6495;51.808;7.478;2022-07-15T07:23:24;101823.00;;;18.60
12854;BMP180;6495;51.808;7.478;2022-07-15T07:25:53;101831.00;;;18.60
12854;BMP180;6495;51.808;7.478;2022-07-15T07:28:22;101822.00;;;18.60
12854;BMP180;6495;51.808;7.478;2022-07-15T07:30:50;101829.00;;;18.60
12854;BMP180;6495;51.808;7.478;2022-07-15T07:33:22;101829.00;;;18.60
12854;BMP180;6495;51.808;7.478;2022-07-15T07:35:52;101828.00;;;18.60
12854;BMP180;6495;51.808;7.478;2022-07-15T07:38:20;101827.00;;;18.70
12854;BMP180;6495;51.808;7.478;2022-07-15T07:40:48;101829.00;;;18.70
12854;BMP180;6495;51.808;7.478;2022-07-15T07:43:17;101828.00;;;18.70
12854;BMP180;6495;51.808;7.478;2022-07-15T07:45:46;101827.00;;;18.70
12854;BMP180;6495;51.808;7.478;2022-07-15T07:48:15;101823.00;;;18.80
12854;BMP180;6495;51.808;7.478;2022-07-15T07:50:44;101824.00;;;18.70
12854;BMP180;6495;51.808;7.478;2022-07-15T07:53:14;101824.00;;;18.80
12854;BMP180;6495;51.808;7.478;2022-07-15T07:55:42;101821.00;;;18.80
12854;BMP180;6495;51.808;7.478;2022-07-15T07:58:10;101829.00;;;18.80
12854;BMP180;6495;51.808;7.478;2022-07-15T08:00:39;101823.00;;;18.80
12854;BMP180;6495;51.808;7.478;2022-07-15T08:03:07;101823.00;;;18.90
12854;BMP180;6495;51.808;7.478;2022-07-15T08:05:35;101824.00;;;18.90
12854;BMP180;6495;51.808;7.478;2022-07-15T08:08:09;101822.00;;;19.00
12854;BMP180;6495;51.808;7.478;2022-07-15T08:10:56;101830.00;;;19.20
12854;BMP180;6495;51.808;7.478;2022-07-15T08:13:26;101829.00;;;19.40
12854;BMP180;6495;51.808;7.478;2022-07-15T08:15:55;101830.00;;;19.50
12854;BMP180;6495;51.808;7.478;2022-07-15T08:18:29;101829.00;;;19.60
12854;BMP180;6495;51.808;7.478;2022-07-15T08:20:57;101839.00;;;19.50
12854;BMP180;6495;51.808;7.478;2022-07-15T08:23:25;101840.00;;;19.50
12854;BMP180;6495;51.808;7.478;2022-07-15T08:25:55;101833.00;;;19.40
12854;BMP180;6495;51.808;7.478;2022-07-15T08:28:23;101843.00;;;19.40
12854;BMP180;6495;51.808;7.478;2022-07-15T08:31:11;101835.00;;;19.30
12854;BMP180;6495;51.808;7.478;2022-07-15T08:33:40;101835.00;;;19.30
12854;BMP180;6495;51.808;7.478;2022-07-15T08:36:08;101829.00;;;19.40
12854;BMP180;6495;51.808;7.478;2022-07-15T08:38:36;101833.00;;;19.50
12854;BMP180;6495;51.808;7.478;2022-07-15T08:41:06;101830.00;;;19.60
12854;BMP180;6495;51.808;7.478;2022-07-15T08:43:34;101832.00;;;19.70
12854;BMP180;6495;51.808;7.478;2022-07-15T08:46:05;101837.00;;;19.70
12854;BMP180;6495;51.808;7.478;2022-07-15T08:48:37;101839.00;;;19.80
12854;BMP180;6495;51.808;7.478;2022-07-15T08:51:06;101834.00;;;20.00
12854;BMP180;6495;51.808;7.478;2022-07-15T08:53:35;101829.00;;;20.10
12854;BMP180;6495;51.808;7.478;2022-07-15T08:56:05;101830.00;;;20.20
12854;BMP180;6495;51.808;7.478;2022-07-15T08:58:36;101828.00;;;20.20
12854;BMP180;6495;51.808;7.478;2022-07-15T09:01:24;101830.00;;;20.30
12854;BMP180;6495;51.808;7.478;2022-07-15T09:03:53;101842.00;;;20.40
12854;BMP180;6495;51.808;7.478;2022-07-15T09:06:33;101833.00;;;20.60
12854;BMP180;6495;51.808;7.478;2022-07-15T09:09:28;101837.00;;;20.70
12854;BMP180;6495;51.808;7.478;2022-07-15T09:12:04;101833.00;;;20.70
12854;BMP180;6495;51.808;7.478;2022-07-15T09:14:44;101823.00;;;20.80
12854;BMP180;6495;51.808;7.478;2022-07-15T09:17:23;101834.00;;;20.70
12854;BMP180;6495;51.808;7.478;2022-07-15T09:20:01;101825.00;;;20.60
12854;BMP180;6495;51.808;7.478;2022-07-15T09:22:34;101834.00;;;20.60
12854;BMP180;6495;51.808;7.478;2022-07-15T09:25:14;101825.00;;;20.60
12854;BMP180;6495;51.808;7.478;2022-07-15T09:27:45;101820.00;;;20.60
12854;BMP180;6495;51.808;7.478;2022-07-15T09:30:17;101823.00;;;20.70
12854;BMP180;6495;51.808;7.478;2022-07-15T09:33:09;101813.00;;;20.90
12854;BMP180;6495;51.808;7.478;2022-07-15T09:36:13;101823.00;;;21.00
12854;BMP180;6495;51.808;7.478;2022-07-15T09:38:46;101821.00;;;21.20
12854;BMP180;6495;51.808;7.478;2022-07-15T09:41:30;101818.00;;;21.30
12854;BMP180;6495;51.808;7.478;2022-07-15T09:44:03;101823.00;;;21.50
12854;BMP180;6495;51.808;7.478;2022-07-15T09:46:43;101825.00;;;21.60
12854;BMP180;6495;51.808;7.478;2022-07-15T09:49:16;101821.00;;;21.50
12854;BMP180;6495;51.808;7.478;2022-07-15T09:51:48;101821.00;;;21.50
12854;BMP180;6495;51.808;7.478;2022-07-15T09:54:18;101831.00;;;21.60
12854;BMP180;6495;51.808;7.478;2022-07-15T09:56:47;101834.00;;;21.50
12854;BMP180;6495;51.808;7.478;2022-07-15T09:59:19;101824.00;;;21.50
12854;BMP180;6495;51.808;7.478;2022-07-15T10:01:47;101829.00;;;21.70
12854;BMP180;6495;51.808;7.478;2022-07-15T10:04:19;101823.00;;;21.70
12854;BMP180;6495;51.808;7.478;2022-07-15T10:06:50;101820.00;;;21.70
12854;BMP180;6495;51.808;7.478;2022-07-15T10:09:39;101820.00;;;21.80
12854;BMP180;6495;51.808;7.478;2022-07-15T10:12:14;101811.00;;;21.90
12854;BMP180;6495;51.808;7.478;2022-07-15T10:15:05;101818.00;;;22.00
12854;BMP180;6495;51.808;7.478;2022-07-15T10:18:03;101827.00;;;21.90
12854;BMP180;6495;51.808;7.478;2022-07-15T10:21:03;101825.00;;;21.80
12854;BMP180;6495;51.808;7.478;2022-07-15T10:26:52;101827.00;;;21.70
12854;BMP180;6495;51.808;7.478;2022-07-15T10:29:23;101831.00;;;21.70
12854;BMP180;6495;51.808;7.478;2022-07-15T10:32:01;101825.00;;;21.80
12854;BMP180;6495;51.808;7.478;2022-07-15T10:34:32;101830.00;;;21.90
12854;BMP180;6495;51.808;7.478;2022-07-15T10:37:08;101816.00;;;21.90
12854;BMP180;6495;51.808;7.478;2022-07-15T10:39:57;101821.00;;;21.90
12854;BMP180;6495;51.808;7.478;2022-07-15T10:43:00;101819.00;;;21.90
12854;BMP180;6495;51.808;7.478;2022-07-15T10:46:04;101819.00;;;21.90
12854;BMP180;6495;51.808;7.478;2022-07-15T10:48:35;101825.00;;;21.90
12854;BMP180;6495;51.808;7.478;2022-07-15T10:51:46;101820.00;;;22.00
12854;BMP180;6495;51.808;7.478;2022-07-15T10:54:45;101817.00;;;21.90
12854;BMP180;6495;51.808;7.478;2022-07-15T10:57:53;101817.00;;;21.90
12854;BMP180;6495;51.808;7.478;2022-07-15T11:00:30;101813.00;;;21.70
12854;BMP180;6495;51.808;7.478;2022-07-15T11:03:13;101810.00;;;21.70
12854;BMP180;6495;51.808;7.478;2022-07-15T11:06:06;101807.00;;;21.90
12854;BMP180;6495;51.808;7.478;2022-07-15T11:08:53;101802.00;;;22.00
12854;BMP180;6495;51.808;7.478;2022-07-15T11:11:49;101800.00;;;22.10
12854;BMP180;6495;51.808;7.478;2022-07-15T11:14:47;101795.00;;;22.20
12854;BMP180;6495;51.808;7.478;2022-07-15T11:17:19;101796.00;;;22.20
12854;BMP180;6495;51.808;7.478;2022-07-15T11:19:52;101791.00;;;22.20
12854;BMP180;6495;51.808;7.478;2022-07-15T11:22:25;101787.00;;;22.20
12854;BMP180;6495;51.808;7.478;2022-07-15T11:24:56;101788.00;;;22.20
12854;BMP180;6495;51.808;7.478;2022-07-15T11:28:03;101779.00;;;22.30
12854;BMP180;6495;51.808;7.478;2022-07-15T11:30:43;101778.00;;;22.40
12854;BMP180;6495;51.808;7.478;2022-07-15T11:33:42;101764.00;;;22.50
12854;BMP180;6495;51.808;7.478;2022-07-15T11:37:44;101778.00;;;22.60
12854;BMP180;6495;51.808;7.478;2022-07-15T11:41:29;101774.00;;;22.70
12854;BMP180;6495;51.808;7.478;2022-07-15T11:44:17;101777.00;;;22.80
12854;BMP180;6495;51.808;7.478;2022-07-15T11:47:07;101775.00;;;22.80
12854;BMP180;6495;51.808;7.478;2022-07-15T11:49:42;101772.00;;;22.70
12854;BMP180;6495;51.808;7.478;2022-07-15T11:52:33;101767.00;;;22.80
12854;BMP180;6495;51.808;7.478;2022-07-15T11:55:53;101771.00;;;22.90
12854;BMP180;6495;51.808;7.478;2022-07-15T11:59:42;101764.00;;;23.00
12854;BMP180;6495;51.808;7.478;2022-07-15T12:02:42;101765.00;;;23.10
12854;BMP180;6495;51.808;7.478;2022-07-15T12:07:04;101763.00;;;23.40
12854;BMP180;6495;51.808;7.478;2022-07-15T12:29:47;101757.00;;;24.00
12854;BMP180;6495;51.808;7.478;2022-07-15T12:32:35;101764.00;;;24.00
12854;BMP180;6495;51.808;7.478;2022-07-15T12:35:08;101764.00;;;23.90
12854;BMP180;6495;51.808;7.478;2022-07-15T12:38:32;101757.00;;;23.90
12854;BMP180;6495;51.808;7.478;2022-07-15T12:41:35;101772.00;;;23.70
12854;BMP180;6495;51.808;7.478;2022-07-15T12:44:06;101762.00;;;23.60
12854;BMP180;6495;51.808;7.478;2022-07-15T12:47:02;101764.00;;;23.60
12854;BMP180;6495;51.808;7.478;2022-07-15T12:49:44;101764.00;;;23.40
12854;BMP180;6495;51.808;7.478;2022-07-15T12:52:20;101757.00;;;23.30
12854;BMP180;6495;51.808;7.478;2022-07-15T12:54:51;101747.00;;;23.30
12854;BMP180;6495;51.808;7.478;2022-07-15T12:57:27;101745.00;;;23.40
12854;BMP180;6495;51.808;7.478;2022-07-15T12:59:59;101738.00;;;23.70
12854;BMP180;6495;51.808;7.478;2022-07-15T13:02:29;101746.00;;;23.90
12854;BMP180;6495;51.808;7.478;2022-07-15T13:04:58;101745.00;;;24.00
12854;BMP180;6495;51.808;7.478;2022-07-15T13:07:26;101741.00;;;24.10
12854;BMP180;6495;51.808;7.478;2022-07-15T13:09:54;101744.00;;;24.20
12854;BMP180;6495;51.808;7.478;2022-07-15T13:12:35;101737.00;;;24.20
12854;BMP180;6495;51.808;7.478;2022-07-15T13:15:30;101738.00;;;24.10
12854;BMP180;6495;51.808;7.478;2022-07-15T13:18:46;101746.00;;;24.10
12854;BMP180;6495;51.808;7.478;2022-07-15T13:21:30;101749.00;;;24.20
12854;BMP180;6495;51.808;7.478;2022-07-15T13:24:01;101737.00;;;24.30
12854;BMP180;6495;51.808;7.478;2022-07-15T13:26:32;101739.00;;;24.30
12854;BMP180;6495;51.808;7.478;2022-07-15T13:29:42;101752.00;;;24.30
12854;BMP180;6495;51.808;7.478;2022-07-15T13:32:53;101743.00;;;24.40
12854;BMP180;6495;51.808;7.478;2022-07-15T13:35:38;101739.00;;;24.40
12854;BMP180;6495;51.808;7.478;2022-07-15T13:39:02;101737.00;;;24.30
12854;BMP180;6495;51.808;7.478;2022-07-15T13:42:03;101735.00;;;24.30
12854;BMP180;6495;51.808;7.478;2022-07-15T13:45:10;101739.00;;;24.40
12854;BMP180;6495;51.808;7.478;2022-07-15T13:47:45;101738.00;;;24.40
12854;BMP180;6495;51.808;7.478;2022-07-15T13:55:35;101736.00;;;24.90
12854;BMP180;6495;51.808;7.478;2022-07-15T13:58:16;101735.00;;;25.00
12854;BMP180;6495;51.808;7.478;2022-07-15T14:00:44;101736.00;;;24.90
12854;BMP180;6495;51.808;7.478;2022-07-15T14:03:13;101734.00;;;24.90
12854;BMP180;6495;51.808;7.478;2022-07-15T14:05:41;101736.00;;;24.80
12854;BMP180;6495;51.808;7.478;2022-07-15T14:08:09;101736.00;;;24.70
12854;BMP180;6495;51.808;7.478;2022-07-15T14:10:38;101739.00;;;24.50
12854;BMP180;6495;51.808;7.478;2022-07-15T14:13:07;101737.00;;;24.50
12854;BMP180;6495;51.808;7.478;2022-07-15T14:15:35;101743.00;;;24.50
12854;BMP180;6495;51.808;7.478;2022-07-15T14:18:06;101743.00;;;24.60
12854;BMP180;6495;51.808;7.478;2022-07-15T14:20:38;101744.00;;;24.50
12854;BMP180;6495;51.808;7.478;2022-07-15T14:23:08;101755.00;;;24.50
12854;BMP180;6495;51.808;7.478;2022-07-15T14:25:37;101749.00;;;24.50
12854;BMP180;6495;51.808;7.478;2022-07-15T14:28:05;101745.00;;;24.60
12854;BMP180;6495;51.808;7.478;2022-07-15T14:30:34;101742.00;;;24.50
12854;BMP180;6495;51.808;7.478;2022-07-15T14:33:01;101748.00;;;24.50
12854;BMP180;6495;51.808;7.478;2022-07-15T14:35:30;101737.00;;;24.50
12854;BMP180;6495;51.808;7.478;2022-07-15T14:37:58;101734.00;;;24.50
12854;BMP180;6495;51.808;7.478;2022-07-15T14:40:26;101745.00;;;24.40
12854;BMP180;6495;51.808;7.478;2022-07-15T14:42:55;101736.00;;;24.30
12854;BMP180;6495;51.808;7.478;2022-07-15T14:45:24;101745.00;;;24.40
12854;BMP180;6495;51.808;7.478;2022-07-15T14:47:52;101736.00;;;24.50
12854;BMP180;6495;51.808;7.478;2022-07-15T14:50:20;101734.00;;;24.50
12854;BMP180;6495;51.808;7.478;2022-07-15T14:52:49;101733.00;;;24.60
12854;BMP180;6495;51.808;7.478;2022-07-15T14:55:17;101729.00;;;24.50
12854;BMP180;6495;51.808;7.478;2022-07-15T14:57:45;101724.00;;;24.40
12854;BMP180;6495;51.808;7.478;2022-07-15T15:00:16;101724.00;;;24.30
12854;BMP180;6495;51.808;7.478;2022-07-15T15:02:44;101725.00;;;24.30
12854;BMP180;6495;51.808;7.478;2022-07-15T15:05:13;101736.00;;;24.30
12854;BMP180;6495;51.808;7.478;2022-07-15T15:07:41;101726.00;;;24.40
12854;BMP180;6495;51.808;7.478;2022-07-15T15:10:10;101730.00;;;24.50
12854;BMP180;6495;51.808;7.478;2022-07-15T15:12:38;101727.00;;;24.50
12854;BMP180;6495;51.808;7.478;2022-07-15T15:15:07;101730.00;;;24.40
12854;BMP180;6495;51.808;7.478;2022-07-15T15:17:36;101734.00;;;24.40